Time;durP1;ratioP1;P1;durP2;ratioP2;P2;SDS_P1;SDS_P2;PMS_P1;PMS_P2;Temp;Humidity;BMP_temperature;BMP_pressure;BME280_temperature;BME280_humidity;BME280_pressure;Samples;Min_cycle;Max_cycle;Signal;HPM_P1;HPM_P2
2023/07/05 00:01:53;;;;;;;3.42;2.10;;;;;;;26.72;58.40;100778.97;4860988;29;20045;-51
2023/07/05 00:04:20;;;;;;;3.05;1.75;;;;;;;26.73;58.53;100777.91;4860634;29;20526;-50
2023/07/05 00:06:51;;;;;;;3.28;1.67;;;;;;;26.75;58.26;100781.31;4858303;29;20056;-51
2023/07/05 00:09:19;;;;;;;3.53;2.05;;;;;;;26.74;58.57;100776.91;4859864;29;20038;-50
2023/07/05 00:11:47;;;;;;;2.92;1.88;;;;;;;26.75;58.29;100772.31;4874120;29;20053;-51
2023/07/05 00:14:14;;;;;;;3.55;2.25;;;;;;;26.75;58.50;100773.16;4860107;29;20053;-50
2023/07/05 00:16:42;;;;;;;2.70;1.70;;;;;;;26.75;58.65;100767.75;4860049;29;20529;-50
2023/07/05 00:19:10;;;;;;;3.67;2.38;;;;;;;26.76;58.70;100771.28;4859941;29;20042;-51
2023/07/05 00:21:37;;;;;;;3.13;2.15;;;;;;;26.75;58.62;100772.31;4860106;29;20056;-51
2023/07/05 00:24:05;;;;;;;3.17;1.95;;;;;;;26.75;58.60;100770.44;4860372;29;20391;-50
2023/07/05 00:26:32;;;;;;;3.33;2.15;;;;;;;26.76;58.46;100768.56;4860233;29;20049;-51
2023/07/05 00:29:00;;;;;;;4.85;2.45;;;;;;;26.75;58.50;100766.91;4872052;29;20038;-51
2023/07/05 00:31:27;;;;;;;3.67;2.42;;;;;;;26.75;58.73;100761.47;4871754;29;20398;-51
2023/07/05 00:33:54;;;;;;;3.90;2.03;;;;;;;26.74;58.73;100768.78;4859176;29;20256;-51
2023/07/05 00:36:22;;;;;;;3.15;2.33;;;;;;;26.74;58.42;100763.34;4860223;29;20064;-48
2023/07/05 00:38:49;;;;;;;4.53;2.30;;;;;;;26.75;58.73;100764.19;4858284;29;20052;-47
2023/07/05 00:41:17;;;;;;;3.00;2.20;;;;;;;26.75;58.48;100772.31;4873635;29;20053;-48
2023/07/05 00:43:48;;;;;;;2.72;1.92;;;;;;;26.76;58.44;100774.00;4873730;29;20061;-47
2023/07/05 00:46:25;;;;;;;3.72;2.60;;;;;;;26.76;58.41;100782.16;4859699;29;20065;-46
2023/07/05 00:49:03;;;;;;;3.42;2.15;;;;;;;26.76;58.24;100768.56;4859461;29;20041;-47
2023/07/05 00:51:42;;;;;;;2.80;1.85;;;;;;;26.76;58.28;100771.28;4858133;29;20053;-48
2023/07/05 00:54:10;;;;;;;6.20;2.38;;;;;;;26.76;58.38;100772.13;4871051;29;20475;-47
2023/07/05 00:56:52;;;;;;;3.17;2.00;;;;;;;26.75;58.25;100767.75;4859715;29;20498;-51
2023/07/05 00:59:22;;;;;;;3.83;2.25;;;;;;;26.76;58.53;100763.16;4858767;29;20079;-50
2023/07/05 01:01:50;;;;;;;4.15;2.13;;;;;;;26.79;58.43;100768.22;4858727;29;20127;-51
2023/07/05 01:04:32;;;;;;;4.57;2.63;;;;;;;26.77;58.35;100760.22;4857889;29;20053;-51
2023/07/05 01:07:00;;;;;;;3.70;2.35;;;;;;;26.77;58.41;100756.69;4859987;29;20057;-50
2023/07/05 01:09:28;;;;;;;3.72;2.13;;;;;;;26.77;58.42;100762.09;4857235;29;20060;-51
2023/07/05 01:12:10;;;;;;;3.13;1.95;;;;;;;26.78;58.25;100766.50;4858386;29;20060;-51
2023/07/05 01:14:50;;;;;;;3.83;2.50;;;;;;;26.78;58.25;100761.94;4872553;29;20065;-51
2023/07/05 01:17:43;;;;;;;4.20;2.75;;;;;;;26.77;58.08;100768.38;4858613;29;20045;-51
2023/07/05 01:20:19;;;;;;;4.45;2.63;;;;;;;26.77;58.21;100764.81;4857506;29;20049;-51
2023/07/05 01:23:05;;;;;;;3.72;2.53;;;;;;;26.77;58.26;100765.66;4859960;29;20046;-50
2023/07/05 01:26:00;;;;;;;3.92;2.45;;;;;;;26.77;58.14;100759.41;4857734;29;20053;-53
2023/07/05 01:28:31;;;;;;;3.15;1.92;;;;;;;26.78;58.25;100761.06;4856382;29;20048;-47
2023/07/05 01:31:16;;;;;;;3.92;2.30;;;;;;;26.78;58.11;100771.94;4859232;29;20050;-48
2023/07/05 01:33:52;;;;;;;3.65;2.20;;;;;;;26.78;58.06;100769.22;4859097;29;20048;-49
2023/07/05 01:36:19;;;;;;;6.60;2.25;;;;;;;26.78;58.32;100777.38;4859300;29;20049;-50
2023/07/05 01:38:47;;;;;;;4.07;2.63;;;;;;;26.77;58.33;100773.81;4859372;29;20045;-52
2023/07/05 01:41:14;;;;;;;2.75;1.65;;;;;;;26.77;58.06;100765.66;4859152;29;20042;-51
2023/07/05 01:43:45;;;;;;;5.25;2.45;;;;;;;26.79;58.19;100768.22;4859183;29;20069;-51
2023/07/05 01:46:30;;;;;;;3.13;2.15;;;;;;;26.79;58.31;100770.94;4859750;29;20069;-48
2023/07/05 01:48:58;;;;;;;3.05;2.00;;;;;;;26.78;58.13;100763.78;4857246;29;20038;-48
2023/07/05 01:51:39;;;;;;;5.47;2.42;;;;;;;26.78;58.08;100764.66;4872642;29;20045;-47
2023/07/05 01:54:11;;;;;;;4.43;3.05;;;;;;;26.78;58.32;100767.38;4859195;29;20052;-48
2023/07/05 01:56:51;;;;;;;3.55;2.38;;;;;;;26.79;58.06;100762.78;4859080;29;20144;-47
2023/07/05 01:59:23;;;;;;;3.97;2.05;;;;;;;26.79;57.95;100762.78;4857098;29;20052;-47
2023/07/05 02:01:53;;;;;;;2.97;2.17;;;;;;;26.79;57.85;100771.78;4873167;29;20042;-48
2023/07/05 02:04:23;;;;;;;;;;;;;;;26.76;58.14;100769.41;4873320;29;20050;-48
2023/07/05 02:06:51;;;;;;;4.55;2.63;;;;;;;26.79;58.06;100771.78;4858913;29;19932;-47
2023/07/05 02:09:19;;;;;;;3.92;2.47;;;;;;;26.80;57.99;100772.63;4858832;29;20052;-47
2023/07/05 02:11:47;;;;;;;4.28;2.92;;;;;;;26.79;58.06;100766.34;4862746;29;20056;-47
2023/07/05 02:14:14;;;;;;;4.57;2.53;;;;;;;26.80;57.75;100775.34;4862264;29;20049;-47
2023/07/05 02:16:42;;;;;;;4.40;2.85;;;;;;;26.79;57.74;100777.22;4876161;29;20058;-51
2023/07/05 02:19:10;;;;;;;3.63;2.70;;;;;;;26.81;57.62;100782.44;4862768;29;20045;-53
2023/07/05 02:21:37;;;;;;;4.88;2.67;;;;;;;26.79;57.74;100774.50;4862489;29;20049;-52
2023/07/05 02:24:05;;;;;;;3.65;2.47;;;;;;;26.81;57.49;100774.28;4862515;29;20053;-50
2023/07/05 02:26:33;;;;;;;4.18;2.72;;;;;;;26.81;57.63;100768.88;4876835;29;20053;-48
2023/07/05 02:29:01;;;;;;;5.72;3.15;;;;;;;26.79;57.64;100770.94;4861986;29;22759;-52
2023/07/05 02:31:29;;;;;;;4.13;2.78;;;;;;;26.80;57.45;100776.16;4860048;29;20049;-48
2023/07/05 02:33:56;;;;;;;4.45;2.55;;;;;;;26.79;56.87;100781.81;4860557;29;20414;-50
2023/07/05 02:36:24;;;;;;;7.10;3.47;;;;;;;26.77;56.58;100784.69;4875747;29;20054;-48
2023/07/05 02:38:54;;;;;;;3.67;2.65;;;;;;;26.76;56.56;100785.72;4862167;29;20044;-48
2023/07/05 02:41:21;;;;;;;5.78;3.13;;;;;;;26.75;56.57;100783.19;4875174;29;20087;-49
2023/07/05 02:43:51;;;;;;;7.57;3.72;;;;;;;26.74;56.42;100778.75;4861794;29;20057;-55
2023/07/05 02:46:18;;;;;;;4.32;3.20;;;;;;;26.72;56.31;100792.53;4861714;29;20420;-49
2023/07/05 02:48:46;;;;;;;5.43;3.63;;;;;;;26.71;56.10;100792.72;4860481;29;20045;-48
2023/07/05 02:51:13;;;;;;;5.70;3.67;;;;;;;26.71;55.78;100798.16;4861284;29;20042;-48
2023/07/05 02:53:41;;;;;;;5.43;3.35;;;;;;;26.69;55.85;100801.03;4861075;29;20049;-49
2023/07/05 02:56:08;;;;;;;4.85;3.75;;;;;;;26.69;55.70;100800.19;4859534;29;20037;-51
2023/07/05 02:58:35;;;;;;;5.45;3.50;;;;;;;26.68;55.75;100806.66;4875740;29;20419;-54
2023/07/05 03:01:05;;;;;;;4.53;3.22;;;;;;;26.67;55.58;100811.25;4861687;29;20050;-54
2023/07/05 03:03:32;;;;;;;4.80;3.17;;;;;;;26.67;55.58;100818.56;4861784;29;20049;-54
2023/07/05 03:06:00;;;;;;;5.22;3.47;;;;;;;26.66;55.30;100822.28;4861878;29;20053;-51
2023/07/05 03:08:28;;;;;;;4.38;3.17;;;;;;;26.66;55.58;100834.00;4860065;29;20061;-52
2023/07/05 03:10:56;;;;;;;4.97;3.20;;;;;;;26.66;55.93;100834.00;4861418;29;20582;-52
2023/07/05 03:13:30;;;;;;;4.32;2.85;;;;;;;26.66;55.83;100841.28;4860215;29;20495;-52
2023/07/05 03:15:58;;;;;;;4.30;3.40;;;;;;;26.66;55.79;100838.56;4861612;29;20049;-53
2023/07/05 03:18:27;;;;;;;6.53;4.05;;;;;;;26.65;55.96;100854.03;4861523;29;20050;-54
2023/07/05 03:20:55;;;;;;;7.90;3.25;;;;;;;26.65;56.12;100864.03;4860658;29;20045;-54
2023/07/05 03:23:22;;;;;;;4.22;3.35;;;;;;;26.66;56.08;100854.84;4874972;29;20057;-53
2023/07/05 03:26:03;;;;;;;4.72;3.28;;;;;;;26.66;56.38;100863.88;4860187;29;20413;-50
2023/07/05 03:28:32;;;;;;;4.30;3.20;;;;;;;26.66;56.47;100871.16;4874826;29;20414;-47
2023/07/05 03:31:03;;;;;;;5.10;3.10;;;;;;;26.65;56.42;100864.03;4874631;29;20045;-48
2023/07/05 03:33:32;;;;;;;4.95;3.03;;;;;;;26.65;56.41;100869.47;4875175;29;20052;-48
2023/07/05 03:36:18;;;;;;;6.07;4.00;;;;;;;26.64;56.55;100874.06;4860871;29;20474;-52
2023/07/05 03:38:49;;;;;;;4.00;2.78;;;;;;;26.63;56.48;100884.09;4874911;29;20053;-52
2023/07/05 03:41:22;;;;;;;4.72;3.33;;;;;;;26.63;56.91;100888.66;4860310;29;20136;-53
2023/07/05 03:43:56;;;;;;;4.55;3.28;;;;;;;26.62;56.87;100895.97;4859481;29;20064;-51
2023/07/05 03:46:24;;;;;;;4.70;3.47;;;;;;;26.61;56.95;100896.13;4860647;29;20050;-48
2023/07/05 03:48:52;;;;;;;4.13;3.05;;;;;;;26.60;56.99;100906.16;4860478;29;20042;-49
2023/07/05 03:51:22;;;;;;;5.68;3.70;;;;;;;26.60;57.19;100911.59;4860545;29;20046;-47
2023/07/05 03:53:51;;;;;;;4.55;3.08;;;;;;;26.60;57.26;100921.59;4860309;29;20037;-50
2023/07/05 03:56:19;;;;;;;4.60;3.38;;;;;;;26.59;57.30;100920.75;4874394;29;20050;-52
2023/07/05 03:58:46;;;;;;;5.53;2.72;;;;;;;26.58;57.00;100921.78;4860936;29;20057;-54
2023/07/05 04:01:15;;;;;;;4.05;2.92;;;;;;;26.59;57.01;100926.19;4860825;29;20045;-54
2023/07/05 04:03:43;;;;;;;4.82;2.97;;;;;;;26.58;56.98;100927.22;4860644;29;20119;-52
2023/07/05 04:06:12;;;;;;;4.43;3.03;;;;;;;26.59;56.77;100928.91;4860816;29;20044;-48
2023/07/05 04:08:42;;;;;;;4.00;2.60;;;;;;;26.59;56.89;100936.22;4860347;29;20056;-50
2023/07/05 04:11:10;;;;;;;3.70;2.78;;;;;;;26.57;56.95;100939.09;4859744;29;20064;-48
2023/07/05 04:13:39;;;;;;;4.15;2.85;;;;;;;26.57;56.89;100947.22;4860162;29;20062;-47
2023/07/05 04:16:11;;;;;;;4.25;2.85;;;;;;;26.57;56.95;100955.38;4860163;29;20049;-48
2023/07/05 04:18:40;;;;;;;4.37;3.00;;;;;;;26.57;56.76;100951.81;4860142;29;20057;-49
2023/07/05 04:21:08;;;;;;;4.72;2.92;;;;;;;26.56;56.86;100953.69;4859913;29;20068;-48
2023/07/05 04:23:36;;;;;;;5.20;3.08;;;;;;;26.55;56.93;100960.16;4860293;29;20064;-49
2023/07/05 04:26:10;;;;;;;3.33;2.28;;;;;;;26.56;56.87;100969.13;4859847;29;20510;-54
2023/07/05 04:28:38;;;;;;;4.70;2.65;;;;;;;26.56;56.98;100966.44;4860244;29;20073;-52
2023/07/05 04:31:09;;;;;;;3.80;2.55;;;;;;;26.57;56.88;100970.81;4860150;29;20037;-53
2023/07/05 04:33:37;;;;;;;4.53;3.03;;;;;;;26.56;56.96;100967.28;4859688;29;20406;-51
2023/07/05 04:36:05;;;;;;;4.13;2.55;;;;;;;26.56;56.81;100966.44;4859772;29;20050;-48
2023/07/05 04:38:49;;;;;;;4.18;2.50;;;;;;;26.57;57.24;100977.09;4859609;29;20037;-48
2023/07/05 04:41:16;;;;;;;3.95;2.72;;;;;;;26.56;57.26;100972.69;4860053;29;20045;-54
2023/07/05 04:43:44;;;;;;;5.28;3.45;;;;;;;26.56;57.05;100967.28;4859812;29;20052;-51
2023/07/05 04:46:11;;;;;;;3.55;2.38;;;;;;;26.56;57.05;100974.56;4859778;29;20042;-50
2023/07/05 04:48:38;;;;;;;3.72;2.75;;;;;;;26.56;57.38;100986.28;4873822;29;20053;-52
2023/07/05 04:51:06;;;;;;;4.95;2.55;;;;;;;26.56;57.39;100980.00;4859320;29;20033;-48
2023/07/05 04:53:33;;;;;;;3.97;2.33;;;;;;;26.56;57.11;100997.13;4859506;29;20057;-52
2023/07/05 04:56:01;;;;;;;3.72;2.50;;;;;;;26.56;57.26;100999.84;4872150;29;20053;-50
2023/07/05 04:58:28;;;;;;;4.25;2.53;;;;;;;26.56;56.91;100999.00;4859784;29;20509;-50
2023/07/05 05:01:04;;;;;;;3.70;2.70;;;;;;;26.55;56.57;100998.16;4859535;29;20116;-51
2023/07/05 05:03:32;;;;;;;3.75;2.50;;;;;;;26.54;56.79;100995.63;4859410;29;20057;-50
2023/07/05 05:06:00;;;;;;;3.53;2.63;;;;;;;26.53;57.14;101002.91;4859564;29;20041;-49
2023/07/05 05:08:28;;;;;;;3.20;2.22;;;;;;;26.52;56.96;101006.66;4856966;29;20042;-50
2023/07/05 05:10:58;;;;;;;3.50;2.35;;;;;;;26.51;57.00;101001.41;4858953;29;20038;-49
2023/07/05 05:13:27;;;;;;;3.33;2.42;;;;;;;26.49;57.12;101009.72;4859337;29;20044;-51
2023/07/05 05:15:56;;;;;;;3.72;1.83;;;;;;;26.46;56.47;101001.09;4859224;29;20498;-48
2023/07/05 05:18:27;;;;;;;2.88;1.60;;;;;;;26.44;56.26;101003.09;4857415;29;20514;-49
2023/07/05 05:20:54;;;;;;;3.90;2.22;;;;;;;26.44;56.10;101008.53;4858957;29;20048;-49
2023/07/05 05:23:22;;;;;;;4.47;2.63;;;;;;;26.45;56.10;101007.53;4872533;29;20066;-49
2023/07/05 05:25:50;;;;;;;2.83;1.50;;;;;;;26.44;56.05;101003.94;4859073;29;20390;-49
2023/07/05 05:28:17;;;;;;;2.50;1.30;;;;;;;26.44;55.66;101003.94;4859685;29;20041;-55
2023/07/05 05:30:45;;;;;;;2.35;1.40;;;;;;;26.44;55.29;100994.94;4859624;29;20042;-54
2023/07/05 05:33:14;;;;;;;4.95;1.50;;;;;;;26.41;55.30;101000.72;4859646;29;20490;-54
2023/07/05 05:35:47;;;;;;;3.10;1.52;;;;;;;26.40;55.37;100997.16;4859498;29;20053;-49
2023/07/05 05:38:16;;;;;;;3.53;1.33;;;;;;;26.39;55.31;101017.19;4859227;29;20041;-49
2023/07/05 05:40:44;;;;;;;3.70;1.38;;;;;;;26.38;55.32;101010.09;4857212;29;20049;-49
2023/07/05 05:43:11;;;;;;;3.05;1.80;;;;;;;26.38;55.51;101019.06;4859108;29;20049;-49
2023/07/05 05:45:39;;;;;;;3.15;1.30;;;;;;;26.38;55.50;101021.78;4861639;29;20069;-50
2023/07/05 05:48:06;;;;;;;2.78;1.60;;;;;;;26.37;55.64;101011.94;4862943;29;20065;-53
2023/07/05 05:50:35;;;;;;;2.50;1.48;;;;;;;26.38;55.53;101004.66;4862822;29;20406;-55
2023/07/05 05:53:02;;;;;;;3.22;1.90;;;;;;;26.38;55.50;100999.22;4862874;29;20510;-55
2023/07/05 05:55:30;;;;;;;3.92;1.95;;;;;;;26.40;55.53;100997.16;4862832;29;20058;-54
2023/07/05 05:57:57;;;;;;;3.05;1.60;;;;;;;26.41;55.62;101008.88;4862962;29;20053;-56
2023/07/05 06:00:25;;;;;;;3.50;1.85;;;;;;;26.41;55.46;101009.72;4862600;29;20053;-54
2023/07/05 06:02:52;;;;;;;2.85;1.50;;;;;;;26.41;55.42;101015.13;4862299;29;20497;-54
2023/07/05 06:05:19;;;;;;;2.97;1.90;;;;;;;26.42;55.32;101013.28;4862815;29;20042;-55
2023/07/05 06:07:47;;;;;;;3.13;1.73;;;;;;;26.38;55.30;101010.09;4860222;29;20049;-56
2023/07/05 06:10:14;;;;;;;3.70;1.48;;;;;;;26.32;55.15;101006.19;4859916;29;20525;-54
2023/07/05 06:12:42;;;;;;;2.90;1.30;;;;;;;26.27;54.98;101007.72;4862302;29;20045;-54
2023/07/05 06:15:11;;;;;;;4.05;1.73;;;;;;;26.23;54.97;101009.09;4858645;29;20041;-55
2023/07/05 06:17:40;;;;;;;3.10;1.83;;;;;;;26.22;55.08;101005.53;4861796;29;20058;-52
2023/07/05 06:20:10;;;;;;;3.10;1.80;;;;;;;26.24;55.08;101008.06;4873352;29;20038;-50
2023/07/05 06:22:39;;;;;;;3.23;1.60;;;;;;;26.26;55.20;101009.59;4861063;29;20541;-48
2023/07/05 06:25:07;;;;;;;2.67;1.40;;;;;;;26.29;55.14;101011.97;4861578;29;20056;-50
2023/07/05 06:27:34;;;;;;;5.85;1.88;;;;;;;26.31;55.24;101004.50;4861464;29;20049;-48
2023/07/05 06:30:03;;;;;;;3.58;2.13;;;;;;;26.34;55.46;101001.44;4861759;29;20157;-49
2023/07/05 06:32:32;;;;;;;3.65;1.65;;;;;;;26.36;55.54;100990.38;4861601;29;20077;-50
2023/07/05 06:34:59;;;;;;;3.67;1.77;;;;;;;26.38;55.60;101000.06;4862096;29;20498;-49
2023/07/05 06:37:27;;;;;;;3.90;1.85;;;;;;;26.42;55.74;100995.13;4861773;29;20402;-49
2023/07/05 06:39:54;;;;;;;3.60;1.67;;;;;;;26.44;55.67;100997.66;4860792;29;20045;-50
2023/07/05 06:42:22;;;;;;;4.50;2.50;;;;;;;26.40;55.44;100997.16;4861765;29;20048;-49
2023/07/05 06:44:55;;;;;;;4.38;2.25;;;;;;;26.31;55.12;101003.66;4875221;29;20056;-49
2023/07/05 06:47:22;;;;;;;4.03;2.45;;;;;;;26.30;54.95;101007.38;4861119;29;20056;-50
2023/07/05 06:49:50;;;;;;;4.07;2.22;;;;;;;26.31;54.81;101011.78;4861739;29;20037;-51
2023/07/05 06:52:20;;;;;;;5.40;1.80;;;;;;;26.33;54.61;101004.31;4861505;29;20045;-58
2023/07/05 06:54:48;;;;;;;2.60;1.70;;;;;;;26.35;54.54;101005.00;4861792;29;20049;-59
2023/07/05 06:57:15;;;;;;;2.70;1.67;;;;;;;26.37;54.42;100994.78;4861244;29;20059;-58
2023/07/05 06:59:44;;;;;;;4.18;1.90;;;;;;;26.37;54.13;101009.25;4860368;29;20056;-60
2023/07/05 07:02:11;;;;;;;2.90;1.77;;;;;;;26.33;53.23;101004.31;4861379;29;20041;-59
2023/07/05 07:04:39;;;;;;;2.40;1.67;;;;;;;26.30;52.67;101004.69;4861587;29;20060;-59
2023/07/05 07:07:06;;;;;;;2.60;1.67;;;;;;;26.24;52.68;100994.50;4860972;29;20041;-50
2023/07/05 07:09:34;;;;;;;2.92;1.90;;;;;;;26.19;52.68;100988.75;4860073;29;20061;-50
2023/07/05 07:12:02;;;;;;;2.55;1.70;;;;;;;26.08;52.82;100988.09;4874450;29;20049;-48
2023/07/05 07:14:30;;;;;;;2.55;1.27;;;;;;;26.03;53.33;100984.19;4861148;29;20053;-49
2023/07/05 07:16:57;;;;;;;2.78;1.70;;;;;;;26.05;53.79;100976.72;4861628;29;20052;-58
2023/07/05 07:19:24;;;;;;;4.47;1.88;;;;;;;26.05;53.49;100983.03;4861417;29;20498;-59
2023/07/05 07:21:52;;;;;;;3.92;1.73;;;;;;;26.06;53.22;100982.00;4875633;29;20529;-59
2023/07/05 07:24:19;;;;;;;4.03;2.05;;;;;;;26.05;53.04;100987.56;4861399;29;20541;-59
2023/07/05 07:26:47;;;;;;;4.43;1.85;;;;;;;26.04;52.49;100981.31;4861141;29;20042;-50
2023/07/05 07:29:14;;;;;;;3.40;1.52;;;;;;;26.03;52.58;100982.34;4860708;29;20049;-49
2023/07/05 07:31:41;;;;;;;3.22;1.60;;;;;;;26.04;52.47;100983.19;4860792;29;20076;-49
2023/07/05 07:34:09;;;;;;;4.22;1.92;;;;;;;26.05;51.83;100976.72;4860349;29;20061;-51
2023/07/05 07:36:36;;;;;;;3.28;1.80;;;;;;;26.07;51.52;100980.13;4859377;29;20057;-51
2023/07/05 07:39:04;;;;;;;3.13;1.85;;;;;;;26.08;51.79;100988.09;4860339;29;20502;-48
2023/07/05 07:41:35;;;;;;;3.50;1.70;;;;;;;26.10;52.14;100987.94;4874468;29;20057;-50
2023/07/05 07:44:05;;;;;;;3.20;1.63;;;;;;;26.11;52.27;100982.31;4860493;29;20049;-49
2023/07/05 07:46:34;;;;;;;2.97;1.52;;;;;;;26.15;52.31;100982.81;4861164;29;20372;-58
2023/07/05 07:49:03;;;;;;;3.72;2.03;;;;;;;26.19;52.42;100981.44;4860074;29;20057;-59
2023/07/05 07:51:33;;;;;;;3.35;2.13;;;;;;;26.24;52.66;100980.94;4860123;29;20837;-59
2023/07/05 07:54:08;;;;;;;2.78;1.83;;;;;;;26.30;52.87;100972.09;4860524;29;20060;-59
2023/07/05 07:56:36;;;;;;;4.47;1.98;;;;;;;26.36;52.85;100977.66;4859624;29;20049;-48
2023/07/05 07:59:06;;;;;;;3.17;1.92;;;;;;;26.40;52.67;100970.00;4860091;29;20041;-48
2023/07/05 08:01:39;;;;;;;3.97;1.90;;;;;;;26.44;52.76;100965.94;4860549;29;20490;-47
2023/07/05 08:04:09;;;;;;;3.38;2.20;;;;;;;26.49;52.79;100968.16;4860255;29;20045;-48
2023/07/05 08:06:40;;;;;;;3.05;1.90;;;;;;;26.52;52.71;100965.09;4859335;29;20053;-58
2023/07/05 08:09:11;;;;;;;5.10;2.13;;;;;;;26.57;52.64;100962.69;4859755;29;20604;-58
2023/07/05 08:11:39;;;;;;;3.72;2.08;;;;;;;26.60;52.09;100959.63;4860044;29;20049;-59
2023/07/05 08:14:07;;;;;;;4.07;2.08;;;;;;;26.64;51.99;100960.97;4859949;29;20050;-59
2023/07/05 08:16:36;;;;;;;2.88;2.03;;;;;;;26.66;52.14;100967.06;4859828;29;20053;-59
2023/07/05 08:19:06;;;;;;;3.33;2.15;;;;;;;26.69;51.91;100963.97;4859839;29;20049;-59
2023/07/05 08:21:33;;;;;;;2.78;1.73;;;;;;;26.73;51.26;100959.03;4859832;29;20048;-58
2023/07/05 08:24:01;;;;;;;3.15;1.88;;;;;;;26.76;51.19;100953.25;4859845;29;20046;-59
2023/07/05 08:26:49;;;;;;;3.10;1.77;;;;;;;26.78;51.51;100948.47;4860260;29;20406;-54
2023/07/05 08:29:16;;;;;;;2.92;1.73;;;;;;;26.79;51.55;100955.63;4859814;29;20041;-55
2023/07/05 08:31:48;;;;;;;2.97;1.95;;;;;;;26.83;51.35;100962.41;4859325;29;20060;-54
2023/07/05 08:34:16;;;;;;;3.28;1.60;;;;;;;26.87;51.17;100961.00;4859934;29;20045;-55
2023/07/05 08:36:46;;;;;;;3.78;1.58;;;;;;;26.93;51.05;100954.84;4859821;29;20390;-63
2023/07/05 08:39:14;;;;;;;3.58;2.03;;;;;;;27.07;50.56;100958.69;4859324;29;20054;-63
2023/07/05 08:41:42;;;;;;;3.05;2.15;;;;;;;27.08;50.36;100961.22;4859619;29;20108;-63
2023/07/05 08:44:25;;;;;;;2.70;1.58;;;;;;;27.10;50.47;100958.34;4859677;29;20402;-63
2023/07/05 08:47:02;;;;;;;3.10;1.73;;;;;;;27.09;50.33;100960.19;4859572;29;20054;-54
2023/07/05 08:49:35;;;;;;;3.20;1.73;;;;;;;27.08;50.31;100952.22;4859907;29;20360;-54
2023/07/05 08:52:03;;;;;;;2.67;1.50;;;;;;;27.08;50.54;100958.50;4858965;29;20058;-53
2023/07/05 08:54:34;;;;;;;2.60;1.88;;;;;;;27.09;50.89;100960.19;4859120;29;20053;-51
2023/07/05 08:57:11;;;;;;;2.97;1.95;;;;;;;27.09;50.93;100962.91;4858922;29;20050;-59
2023/07/05 08:59:59;;;;;;;2.72;1.92;;;;;;;27.09;51.24;100960.19;4859660;29;20505;-59
2023/07/05 09:02:27;;;;;;;2.90;1.83;;;;;;;27.07;51.59;100956.81;4859091;29;20062;-60
2023/07/05 09:04:57;;;;;;;4.18;2.38;;;;;;;27.04;51.76;100949.00;4858892;29;20045;-59
2023/07/05 09:07:51;;;;;;;3.75;1.90;;;;;;;27.03;51.90;100944.63;4859028;29;20630;-54
2023/07/05 09:10:28;;;;;;;4.75;2.10;;;;;;;27.05;52.00;100945.25;4858834;29;20510;-51
2023/07/05 09:13:15;;;;;;;4.15;2.30;;;;;;;27.06;51.62;100943.38;4858971;29;20042;-52
2023/07/05 09:15:49;;;;;;;3.83;2.05;;;;;;;27.08;52.13;100954.94;4858468;29;20053;-53
2023/07/05 09:18:38;;;;;;;3.33;2.22;;;;;;;27.09;52.16;100949.31;4872849;29;20054;-59
2023/07/05 09:21:11;;;;;;;3.97;2.00;;;;;;;27.09;51.98;100943.88;4859141;29;20049;-59
2023/07/05 09:23:45;;;;;;;5.15;2.50;;;;;;;27.10;52.02;100940.19;4859060;29;20045;-59
2023/07/05 09:26:21;;;;;;;3.88;2.70;;;;;;;27.10;52.54;100937.47;4859048;29;20076;-59
2023/07/05 09:29:27;;;;;;;3.75;2.40;;;;;;;27.09;52.45;100926.72;4859278;29;20045;-59
2023/07/05 09:31:54;;;;;;;4.80;2.65;;;;;;;27.10;52.45;100929.31;4858873;29;20056;-59
2023/07/05 09:34:39;;;;;;;3.05;2.13;;;;;;;27.10;52.68;100923.00;4858728;29;20045;-59
2023/07/05 09:37:16;;;;;;;3.50;2.40;;;;;;;27.11;52.94;100924.72;4859482;29;20046;-59
2023/07/05 09:39:55;;;;;;;2.83;2.22;;;;;;;27.13;52.96;100922.66;4858680;29;20068;-58
2023/07/05 09:42:54;;;;;;;4.47;2.88;;;;;;;27.14;53.29;100923.50;4858817;29;20053;-58
2023/07/05 09:45:22;;;;;;;4.60;2.92;;;;;;;27.16;53.17;100932.34;4858877;29;20065;-58
2023/07/05 09:47:54;;;;;;;4.57;2.97;;;;;;;27.16;52.93;100925.03;4858927;29;20479;-58
2023/07/05 09:50:22;;;;;;;3.80;2.90;;;;;;;27.17;52.76;100923.16;4872620;29;20418;-58
2023/07/05 09:52:52;;;;;;;3.70;2.75;;;;;;;27.17;53.21;100920.44;4858677;29;20041;-58
2023/07/05 09:55:20;;;;;;;4.15;2.58;;;;;;;27.18;52.97;100930.25;4858674;29;20359;-58
2023/07/05 09:57:48;;;;;;;3.53;2.63;;;;;;;27.18;53.10;100925.66;4858650;29;20049;-54
2023/07/05 10:00:26;;;;;;;4.10;2.72;;;;;;;27.19;53.10;100932.81;4858708;29;20046;-56
2023/07/05 10:03:01;;;;;;;3.30;2.25;;;;;;;27.19;52.93;100930.09;4859249;29;20045;-54
2023/07/05 10:05:30;;;;;;;3.72;2.72;;;;;;;27.19;53.09;100932.81;4858611;29;20037;-56
2023/07/05 10:08:00;;;;;;;3.95;2.95;;;;;;;27.20;53.38;100933.66;4858409;29;20045;-55
2023/07/05 10:10:35;;;;;;;4.35;3.05;;;;;;;27.20;53.39;100928.22;4870365;29;20053;-56
2023/07/05 10:13:15;;;;;;;4.60;3.05;;;;;;;27.22;53.13;100937.03;4858718;29;20046;-54
2023/07/05 10:15:45;;;;;;;4.65;3.55;;;;;;;27.23;52.64;100938.75;4872628;29;20049;-59
2023/07/05 10:18:32;;;;;;;4.13;3.35;;;;;;;27.22;52.83;100935.16;4858128;29;20042;-54
2023/07/05 10:21:09;;;;;;;4.30;3.30;;;;;;;27.22;52.70;100928.88;4858906;29;20049;-55
2023/07/05 10:23:36;;;;;;;3.40;2.95;;;;;;;27.21;53.32;100924.47;4858508;29;20439;-58
2023/07/05 10:26:06;;;;;;;4.35;3.25;;;;;;;27.20;55.22;100922.78;4857479;29;20069;-53
2023/07/05 10:28:36;;;;;;;4.72;3.80;;;;;;;27.18;55.68;100922.09;4858708;29;20064;-53
2023/07/05 10:31:04;;;;;;;4.32;3.15;;;;;;;27.16;55.75;100916.03;4859730;29;20053;-54
2023/07/05 10:33:35;;;;;;;4.38;3.25;;;;;;;27.15;55.72;100917.06;4861576;29;20060;-51
2023/07/05 10:36:02;;;;;;;4.13;3.63;;;;;;;27.15;56.34;100920.63;4861483;29;20045;-51
2023/07/05 10:38:46;;;;;;;5.05;3.90;;;;;;;27.15;56.26;100922.50;4861952;29;20068;-55
2023/07/05 10:41:19;;;;;;;4.20;3.78;;;;;;;27.13;56.42;100913.66;4861736;29;20072;-55
2023/07/05 10:44:27;;;;;;;5.28;4.47;;;;;;;27.13;56.63;100913.66;4859371;29;20048;-53
2023/07/05 10:46:56;;;;;;;5.03;4.53;;;;;;;27.13;56.36;100908.22;4857163;29;20053;-58
2023/07/05 10:49:25;;;;;;;5.05;4.45;;;;;;;27.11;56.42;100903.81;4861780;29;20065;-58
2023/07/05 10:51:57;;;;;;;5.65;4.68;;;;;;;27.10;56.18;100891.28;4861466;29;20049;-59
2023/07/05 10:54:27;;;;;;;5.32;4.57;;;;;;;27.11;56.56;100898.38;4861182;29;20049;-59
2023/07/05 10:56:55;;;;;;;6.55;4.57;;;;;;;27.09;56.45;100894.97;4861458;29;20060;-58
2023/07/05 10:59:37;;;;;;;5.60;4.63;;;;;;;27.08;56.51;100882.41;4861154;29;20041;-59
2023/07/05 11:02:19;;;;;;;5.72;4.93;;;;;;;27.07;56.81;100883.44;4861192;29;20038;-59
2023/07/05 11:04:50;;;;;;;4.80;4.32;;;;;;;27.07;56.99;100880.72;4861509;29;20049;-59
2023/07/05 11:07:20;;;;;;;5.10;4.60;;;;;;;27.05;57.05;100882.75;4861125;29;20387;-52
2023/07/05 11:09:47;;;;;;;5.13;4.63;;;;;;;27.05;57.28;100876.50;4860787;29;20065;-54
2023/07/05 11:12:23;;;;;;;6.82;4.75;;;;;;;27.05;57.42;100865.63;4860825;29;20049;-54
2023/07/05 11:14:53;;;;;;;5.55;4.60;;;;;;;27.04;57.33;100878.38;4861240;29;20644;-54
2023/07/05 11:17:31;;;;;;;5.63;4.97;;;;;;;27.03;56.95;100870.41;4861144;29;20084;-56
2023/07/05 11:19:59;;;;;;;5.50;5.00;;;;;;;27.03;56.53;100873.13;4860829;29;20060;-56
2023/07/05 11:22:43;;;;;;;5.57;5.07;;;;;;;27.02;56.01;100871.41;4861227;29;20064;-57
2023/07/05 11:25:16;;;;;;;5.35;4.72;;;;;;;27.05;55.40;100874.63;4861172;29;20056;-56
2023/07/05 11:27:49;;;;;;;;;;;;;;;27.04;55.23;100875.66;4861481;29;20085;-57
2023/07/05 11:30:43;;;;;;;5.50;5.00;;;;;;;27.06;55.27;100868.19;4861269;29;19924;-56
2023/07/05 11:33:10;;;;;;;5.82;5.22;;;;;;;27.15;52.48;100868.97;4861189;29;20045;-58
2023/07/05 11:35:50;;;;;;;4.72;4.13;;;;;;;27.12;51.83;100872.06;4861041;29;20068;-55
2023/07/05 11:38:40;;;;;;;6.88;4.57;;;;;;;27.09;53.76;100866.94;4860954;29;20057;-49
2023/07/05 11:41:09;;;;;;;5.18;4.65;;;;;;;27.08;55.12;100859.84;4860964;29;20049;-51
2023/07/05 11:43:41;;;;;;;5.38;4.80;;;;;;;27.06;55.19;100857.31;4860371;29;20061;-49
2023/07/05 11:46:33;;;;;;;5.45;4.95;;;;;;;27.04;55.53;100859.34;4860787;29;20053;-56